createdAt,value
2023-05-05T00:06:40.048Z,13.00
2023-05-05T00:16:46.859Z,13.00
2023-05-05T00:26:51.097Z,12.80
2023-05-05T00:36:56.253Z,12.60
2023-05-05T00:47:00.009Z,12.70
2023-05-05T00:57:05.364Z,12.50
2023-05-05T01:07:22.212Z,12.40
2023-05-05T01:17:36.335Z,12.40
2023-05-05T01:28:08.521Z,12.50
2023-05-05T01:38:18.602Z,12.40
2023-05-05T01:48:23.936Z,12.50
2023-05-05T01:58:31.334Z,12.40
2023-05-05T02:08:38.041Z,12.20
2023-05-05T02:18:44.315Z,12.10
2023-05-05T02:28:53.648Z,11.90
2023-05-05T02:39:04.718Z,12.00
2023-05-05T02:49:08.522Z,11.90
2023-05-05T02:59:20.998Z,11.90
2023-05-05T03:09:31.243Z,11.80
2023-05-05T03:19:38.288Z,11.50
2023-05-05T03:29:41.920Z,11.50
2023-05-05T03:39:46.947Z,11.30
2023-05-05T03:49:50.517Z,11.50
2023-05-05T03:59:55.598Z,11.50
2023-05-05T04:09:59.220Z,11.70
2023-05-05T04:20:04.765Z,11.80
2023-05-05T04:30:10.719Z,11.80
2023-05-05T04:40:16.151Z,11.90
2023-05-05T04:50:20.366Z,12.20
2023-05-05T05:00:25.580Z,12.30
2023-05-05T05:10:29.461Z,12.50
2023-05-05T05:20:34.595Z,12.70
2023-05-05T05:30:38.590Z,12.90
2023-05-05T05:40:43.763Z,13.00
2023-05-05T05:50:47.596Z,13.30
2023-05-05T06:00:52.708Z,13.70
2023-05-05T06:10:56.411Z,14.00
2023-05-05T06:21:02.047Z,14.40
2023-05-05T06:31:08.297Z,14.70
2023-05-05T06:41:13.470Z,15.20
2023-05-05T06:51:17.209Z,15.60
2023-05-05T07:01:22.201Z,16.00
2023-05-05T07:11:25.885Z,16.30
2023-05-05T07:21:30.904Z,16.40
2023-05-05T07:31:34.645Z,16.90
2023-05-05T07:41:39.936Z,17.30
2023-05-05T07:51:44.880Z,17.90
2023-05-05T08:01:49.952Z,18.30
2023-05-05T08:11:53.540Z,18.80
2023-05-05T08:22:01.127Z,19.20
2023-05-05T08:32:05.232Z,19.20
2023-05-05T08:42:10.373Z,19.10
2023-05-05T08:52:17.234Z,19.00
2023-05-05T09:02:23.950Z,19.40
2023-05-05T09:12:31.762Z,19.70
2023-05-05T09:22:38.787Z,20.10
2023-05-05T09:32:47.690Z,20.50
2023-05-05T09:43:02.799Z,20.60
2023-05-05T09:53:07.276Z,20.90
2023-05-05T10:03:12.413Z,21.20
2023-05-05T10:13:21.559Z,21.90
2023-05-05T10:23:37.174Z,22.40
2023-05-05T10:33:50.034Z,22.50
2023-05-05T10:43:57.489Z,22.50
2023-05-05T10:54:10.281Z,22.80
2023-05-05T11:04:23.584Z,23.00
2023-05-05T11:14:27.230Z,23.40
2023-05-05T11:24:36.447Z,23.80
2023-05-05T11:34:50.766Z,24.00
2023-05-05T11:44:56.212Z,24.20
2023-05-05T11:55:03.645Z,24.20
2023-05-05T12:05:09.355Z,24.20
2023-05-05T12:15:13.046Z,24.20
2023-05-05T12:25:18.529Z,24.20
2023-05-05T12:35:22.475Z,24.60
2023-05-05T12:45:27.748Z,25.00
2023-05-05T12:55:39.913Z,25.00
2023-05-05T13:05:45.058Z,24.80
2023-05-05T13:15:48.712Z,24.80
2023-05-05T13:25:53.928Z,24.70
2023-05-05T13:35:57.603Z,24.80
2023-05-05T13:46:18.619Z,25.00
2023-05-05T13:56:26.054Z,25.20
2023-05-05T14:06:31.235Z,25.20
2023-05-05T14:16:35.104Z,25.10
2023-05-05T14:26:40.177Z,25.00
2023-05-05T14:36:43.856Z,24.80
2023-05-05T14:46:50.484Z,26.10
2023-05-05T14:56:54.786Z,24.80
2023-05-05T15:06:59.797Z,24.50
2023-05-05T15:17:03.756Z,24.10
2023-05-05T15:27:08.815Z,23.60
2023-05-05T15:37:12.528Z,23.20
2023-05-05T15:47:17.586Z,22.80
2023-05-05T15:57:21.397Z,21.60
2023-05-05T16:07:26.915Z,19.70
2023-05-05T16:17:31.020Z,19.30
2023-05-05T16:27:36.023Z,19.30
2023-05-05T16:37:39.758Z,19.30
2023-05-05T16:47:45.501Z,19.40
2023-05-05T16:57:49.325Z,19.40
2023-05-05T17:07:54.654Z,19.30
2023-05-05T17:17:58.378Z,19.10
2023-05-05T17:28:05.834Z,19.30
2023-05-05T17:38:09.539Z,19.10
2023-05-05T17:48:14.570Z,19.10
2023-05-05T17:58:18.349Z,19.00
2023-05-05T18:08:23.393Z,19.00
2023-05-05T18:18:27.031Z,18.70
2023-05-05T18:28:32.175Z,18.70
2023-05-05T18:38:37.166Z,18.60
2023-05-05T18:48:42.115Z,18.40
2023-05-05T18:58:45.753Z,18.20
2023-05-05T19:08:51.113Z,18.00
2023-05-05T19:18:58.632Z,18.00
2023-05-05T19:29:03.964Z,17.90
2023-05-05T19:39:08.120Z,17.80
2023-05-05T19:49:13.193Z,17.80
2023-05-05T19:59:16.813Z,17.70
2023-05-05T20:09:21.736Z,17.50
2023-05-05T20:19:25.811Z,17.20
2023-05-05T20:29:30.820Z,16.80
2023-05-05T20:39:34.480Z,16.70
2023-05-05T20:49:39.464Z,16.60
2023-05-05T20:59:43.126Z,16.20
2023-05-05T21:09:51.400Z,16.20
2023-05-05T21:19:56.156Z,16.30
2023-05-05T21:30:01.628Z,16.30
2023-05-05T21:40:07.201Z,16.40
2023-05-05T21:50:13.161Z,16.50
2023-05-05T22:00:17.667Z,16.50
2023-05-05T22:10:22.918Z,16.40
2023-05-05T22:20:27.178Z,16.40
2023-05-05T22:30:32.234Z,16.50
2023-05-05T22:40:36.620Z,16.40
2023-05-05T22:50:41.845Z,16.20
2023-05-05T23:00:45.662Z,15.50
2023-05-05T23:10:51.822Z,15.20
2023-05-05T23:20:55.829Z,15.20
2023-05-05T23:31:01.011Z,15.10
2023-05-05T23:41:05.064Z,15.20
2023-05-05T23:51:10.210Z,15.20
